createdAt,value
2023-02-16T00:01:26.361Z,96.80
2023-02-16T00:03:56.827Z,96.60
2023-02-16T00:06:25.305Z,96.80
2023-02-16T00:08:55.246Z,97.10
2023-02-16T00:11:46.382Z,97.10
2023-02-16T00:14:15.506Z,97.00
2023-02-16T00:16:43.552Z,97.00
2023-02-16T00:19:21.007Z,96.90
2023-02-16T00:21:49.676Z,97.00
2023-02-16T00:24:17.892Z,97.00
2023-02-16T00:26:47.478Z,97.20
2023-02-16T00:29:21.023Z,97.30
2023-02-16T00:31:49.423Z,97.30
2023-02-16T00:34:31.610Z,97.40
2023-02-16T00:37:01.349Z,97.40
2023-02-16T00:39:32.065Z,97.50
2023-02-16T00:42:02.879Z,97.90
2023-02-16T00:44:36.820Z,97.80
2023-02-16T00:47:12.043Z,97.70
2023-02-16T00:49:41.304Z,97.60
2023-02-16T00:52:33.285Z,97.50
2023-02-16T00:55:02.674Z,97.70
2023-02-16T00:57:34.394Z,98.30
2023-02-16T01:00:07.198Z,98.40
2023-02-16T01:02:35.196Z,98.30
2023-02-16T01:05:04.617Z,98.20
2023-02-16T01:07:50.125Z,97.80
2023-02-16T01:10:50.827Z,98.20
2023-02-16T01:13:19.228Z,98.00
2023-02-16T01:15:47.294Z,98.10
2023-02-16T01:18:17.296Z,97.90
2023-02-16T01:20:47.283Z,98.20
2023-02-16T01:23:15.303Z,98.00
2023-02-16T01:25:43.480Z,97.90
2023-02-16T01:28:20.285Z,98.00
2023-02-16T01:30:48.350Z,97.90
2023-02-16T01:33:16.534Z,97.80
2023-02-16T01:35:46.242Z,97.90
2023-02-16T01:38:18.908Z,97.90
2023-02-16T01:40:55.349Z,98.00
2023-02-16T01:43:27.084Z,98.10
2023-02-16T01:46:02.194Z,97.70
2023-02-16T01:48:32.698Z,98.20
2023-02-16T01:51:07.952Z,98.20
2023-02-16T01:53:41.042Z,98.20
2023-02-16T01:56:21.151Z,98.20
2023-02-16T01:58:53.904Z,98.10
2023-02-16T02:01:44.237Z,98.10
2023-02-16T02:04:43.784Z,98.20
2023-02-16T02:07:20.654Z,98.10
2023-02-16T02:09:56.519Z,98.10
2023-02-16T02:12:31.635Z,98.20
2023-02-16T02:14:59.611Z,98.20
2023-02-16T02:17:28.302Z,98.10
2023-02-16T02:20:03.444Z,97.90
2023-02-16T02:23:22.041Z,98.20
2023-02-16T02:26:43.588Z,98.20
2023-02-16T02:29:30.673Z,98.40
2023-02-16T02:32:09.547Z,98.30
2023-02-16T02:34:49.493Z,98.20
2023-02-16T02:37:25.486Z,98.70
2023-02-16T02:40:01.796Z,98.50
2023-02-16T02:42:38.269Z,98.50
2023-02-16T02:45:14.704Z,99.10
2023-02-16T02:47:45.985Z,98.60
2023-02-16T02:50:36.493Z,98.70
2023-02-16T02:53:08.063Z,98.50
2023-02-16T02:55:57.722Z,98.50
2023-02-16T02:58:46.176Z,98.00
2023-02-16T03:01:19.660Z,98.40
2023-02-16T03:03:52.190Z,98.40
2023-02-16T03:06:24.700Z,98.60
2023-02-16T03:09:01.852Z,98.30
2023-02-16T03:11:48.367Z,98.20
2023-02-16T03:14:20.113Z,98.40
2023-02-16T03:17:10.429Z,98.60
2023-02-16T03:19:58.520Z,98.20
2023-02-16T03:22:44.144Z,98.20
2023-02-16T03:25:29.896Z,98.30
2023-02-16T03:28:17.417Z,98.30
2023-02-16T03:30:47.765Z,98.30
2023-02-16T03:33:17.330Z,98.30
2023-02-16T03:35:46.404Z,98.10
2023-02-16T03:38:14.768Z,99.00
2023-02-16T03:40:45.146Z,98.70
2023-02-16T03:43:13.054Z,98.20
2023-02-16T03:45:44.265Z,98.50
2023-02-16T03:48:12.958Z,98.40
2023-02-16T03:50:42.210Z,98.30
2023-02-16T03:53:10.190Z,98.20
2023-02-16T03:55:39.717Z,98.90
2023-02-16T03:58:09.555Z,98.70
2023-02-16T04:00:38.736Z,98.50
2023-02-16T04:03:09.295Z,98.50
2023-02-16T04:05:37.935Z,98.80
2023-02-16T04:08:07.921Z,98.60
2023-02-16T04:10:36.204Z,98.50
2023-02-16T04:13:03.405Z,98.40
2023-02-16T04:15:31.949Z,98.60
2023-02-16T04:18:00.168Z,98.50
2023-02-16T04:20:30.130Z,98.20
2023-02-16T04:22:58.878Z,98.80
2023-02-16T04:25:28.871Z,98.70
2023-02-16T04:27:57.200Z,98.90
2023-02-16T04:30:27.757Z,99.20
2023-02-16T04:32:56.746Z,98.70
2023-02-16T04:35:24.671Z,98.60
2023-02-16T04:37:52.809Z,99.00
2023-02-16T04:40:21.075Z,99.10
2023-02-16T04:42:50.381Z,98.90
2023-02-16T04:45:18.440Z,99.10
2023-02-16T04:47:46.472Z,98.80
2023-02-16T04:50:14.569Z,98.20
2023-02-16T04:52:42.611Z,98.70
2023-02-16T04:55:11.580Z,98.60
2023-02-16T04:57:39.810Z,98.80
2023-02-16T05:00:12.638Z,98.90
2023-02-16T05:02:40.539Z,98.80
2023-02-16T05:05:09.373Z,99.00
2023-02-16T05:07:37.553Z,99.00
2023-02-16T05:10:06.852Z,99.00
2023-02-16T05:12:52.265Z,99.00
2023-02-16T05:15:21.964Z,98.70
2023-02-16T05:17:50.056Z,98.80
2023-02-16T05:20:17.999Z,98.70
2023-02-16T05:22:46.357Z,98.10
2023-02-16T05:25:14.317Z,99.20
2023-02-16T05:27:42.301Z,99.20
2023-02-16T05:30:11.538Z,98.50
2023-02-16T05:32:40.908Z,99.10
2023-02-16T05:35:09.588Z,99.20
2023-02-16T05:37:37.538Z,98.50
2023-02-16T05:40:06.142Z,98.90
2023-02-16T05:42:34.081Z,99.00
2023-02-16T05:45:02.330Z,98.90
2023-02-16T05:47:30.419Z,98.90
2023-02-16T05:49:59.657Z,98.50
2023-02-16T05:52:27.827Z,98.90
2023-02-16T05:54:55.876Z,98.70
2023-02-16T05:57:23.792Z,99.00
2023-02-16T05:59:51.707Z,98.70
2023-02-16T06:02:19.761Z,98.60
2023-02-16T06:04:47.799Z,99.00
2023-02-16T06:07:17.090Z,99.10
2023-02-16T06:09:45.003Z,99.10
2023-02-16T06:12:13.002Z,98.90
2023-02-16T06:14:40.887Z,98.70
2023-02-16T06:17:08.743Z,98.60
2023-02-16T06:19:36.640Z,98.60
2023-02-16T06:22:04.568Z,98.60
2023-02-16T06:24:33.972Z,98.80
2023-02-16T06:27:01.902Z,99.10
2023-02-16T06:29:29.930Z,98.90
2023-02-16T06:31:57.936Z,98.90
2023-02-16T06:34:27.063Z,99.50
2023-02-16T06:36:55.027Z,99.20
2023-02-16T06:39:23.036Z,98.90
2023-02-16T06:41:52.343Z,99.40
2023-02-16T06:44:20.436Z,99.40
2023-02-16T06:46:49.476Z,99.00
2023-02-16T06:49:19.767Z,98.90
2023-02-16T06:51:49.019Z,99.10
2023-02-16T06:54:17.628Z,98.90
2023-02-16T06:56:45.627Z,99.00
2023-02-16T06:59:16.023Z,99.50
2023-02-16T07:01:45.500Z,99.00
2023-02-16T07:04:13.925Z,99.00
2023-02-16T07:06:42.356Z,99.40
2023-02-16T07:09:12.407Z,99.00
2023-02-16T07:11:40.850Z,99.20
2023-02-16T07:14:08.778Z,99.70
2023-02-16T07:16:38.229Z,99.00
2023-02-16T07:19:06.880Z,99.50
2023-02-16T07:21:34.999Z,99.20
2023-02-16T07:24:03.684Z,98.80
2023-02-16T07:26:31.699Z,99.00
2023-02-16T07:28:59.784Z,98.60
2023-02-16T07:31:27.800Z,98.80
2023-02-16T07:33:58.118Z,99.10
2023-02-16T07:36:26.084Z,99.00
2023-02-16T07:38:54.946Z,99.20
2023-02-16T07:41:23.343Z,98.40
2023-02-16T07:43:51.322Z,99.00
2023-02-16T07:46:19.374Z,98.80
2023-02-16T07:48:48.797Z,99.20
2023-02-16T07:51:23.626Z,98.60
2023-02-16T07:53:52.137Z,99.20
2023-02-16T07:56:21.383Z,99.10
2023-02-16T07:58:49.396Z,99.60
2023-02-16T08:01:17.414Z,99.60
2023-02-16T08:03:45.395Z,99.80
2023-02-16T08:06:14.139Z,99.80
2023-02-16T08:08:43.706Z,99.70
2023-02-16T08:11:12.839Z,99.50
2023-02-16T08:13:40.958Z,99.40
2023-02-16T08:16:09.883Z,99.50
2023-02-16T08:18:37.994Z,99.40
2023-02-16T08:21:14.232Z,99.20
2023-02-16T08:23:47.532Z,99.20
2023-02-16T08:26:18.176Z,99.40
2023-02-16T08:28:46.941Z,99.90
2023-02-16T08:31:15.362Z,99.90
2023-02-16T08:33:43.921Z,99.90
2023-02-16T08:36:18.036Z,99.80
2023-02-16T08:38:50.365Z,99.90
2023-02-16T08:41:18.858Z,99.70
2023-02-16T08:43:46.893Z,99.90
2023-02-16T08:46:15.403Z,99.40
2023-02-16T08:48:45.129Z,99.90
2023-02-16T08:51:15.394Z,99.90
2023-02-16T08:53:43.405Z,99.90
2023-02-16T08:56:12.773Z,99.90
2023-02-16T08:58:40.978Z,99.40
2023-02-16T09:01:09.924Z,99.50
2023-02-16T09:03:41.152Z,99.70
2023-02-16T09:06:10.213Z,99.70
2023-02-16T09:08:38.432Z,99.90
2023-02-16T09:11:07.701Z,99.50
2023-02-16T09:13:37.789Z,99.50
2023-02-16T09:16:08.036Z,99.80
2023-02-16T09:18:36.753Z,99.50
2023-02-16T09:21:06.833Z,99.20
2023-02-16T09:23:35.961Z,99.30
2023-02-16T09:26:06.954Z,99.30
2023-02-16T09:28:37.442Z,98.90
2023-02-16T09:31:11.677Z,98.10
2023-02-16T09:33:40.508Z,98.30
2023-02-16T09:36:10.696Z,98.20
2023-02-16T09:38:40.068Z,98.30
2023-02-16T09:41:11.683Z,97.50
2023-02-16T09:43:50.323Z,98.20
2023-02-16T09:46:23.428Z,98.20
2023-02-16T09:48:52.801Z,98.20
2023-02-16T09:51:34.419Z,98.20
2023-02-16T09:54:14.256Z,97.80
2023-02-16T09:56:50.989Z,98.00
2023-02-16T09:59:44.125Z,97.90
2023-02-16T10:02:26.418Z,97.40
2023-02-16T10:05:04.701Z,97.10
2023-02-16T10:07:44.208Z,97.10
2023-02-16T10:10:16.440Z,96.50
2023-02-16T10:12:51.525Z,96.20
2023-02-16T10:15:24.699Z,95.60
2023-02-16T10:17:56.054Z,95.80
2023-02-16T10:20:32.549Z,96.10
2023-02-16T10:23:08.230Z,95.70
2023-02-16T10:25:42.093Z,96.40
2023-02-16T10:28:18.050Z,96.30
2023-02-16T10:30:54.508Z,96.20
2023-02-16T10:33:36.384Z,96.00
2023-02-16T10:36:16.385Z,96.00
2023-02-16T10:38:51.954Z,95.60
2023-02-16T10:41:32.827Z,94.90
2023-02-16T10:44:05.530Z,95.10
2023-02-16T10:46:43.010Z,95.00
2023-02-16T10:49:14.108Z,94.90
2023-02-16T10:51:46.135Z,94.40
2023-02-16T10:54:20.147Z,94.40
2023-02-16T10:56:54.122Z,94.20
2023-02-16T10:59:23.847Z,93.90
2023-02-16T11:01:54.283Z,93.70
2023-02-16T11:04:33.821Z,93.10
2023-02-16T11:07:04.972Z,92.90
2023-02-16T11:09:33.661Z,92.80
2023-02-16T11:12:02.947Z,92.30
2023-02-16T11:14:32.760Z,91.90
2023-02-16T11:17:11.004Z,91.50
2023-02-16T11:19:40.481Z,90.70
2023-02-16T11:22:25.377Z,91.30
2023-02-16T11:24:53.304Z,90.30
2023-02-16T11:27:23.252Z,90.30
2023-02-16T11:29:51.704Z,89.90
2023-02-16T11:32:22.596Z,90.50
2023-02-16T11:35:10.664Z,89.20
2023-02-16T11:37:41.537Z,89.10
2023-02-16T11:40:21.490Z,90.20
2023-02-16T11:42:52.015Z,89.80
2023-02-16T11:45:27.182Z,88.70
2023-02-16T11:47:57.656Z,90.10
2023-02-16T11:50:30.212Z,83.60
2023-02-16T11:53:14.743Z,84.40
2023-02-16T11:55:45.018Z,81.30
2023-02-16T11:58:22.569Z,82.00
2023-02-16T12:01:10.241Z,80.20
2023-02-16T12:04:04.314Z,77.30
2023-02-16T12:06:47.514Z,77.70
2023-02-16T12:09:26.833Z,77.70
2023-02-16T12:12:04.530Z,79.10
2023-02-16T12:14:42.828Z,79.90
2023-02-16T12:17:22.731Z,78.80
2023-02-16T12:19:56.491Z,76.60
2023-02-16T12:22:32.409Z,76.30
2023-02-16T12:25:14.014Z,76.90
2023-02-16T12:27:50.906Z,77.10
2023-02-16T12:30:39.192Z,77.50
2023-02-16T12:33:23.779Z,73.50
2023-02-16T12:36:09.725Z,75.50
2023-02-16T12:38:51.973Z,74.70
2023-02-16T12:41:30.998Z,73.90
2023-02-16T12:44:01.998Z,76.10
2023-02-16T12:46:33.878Z,75.60
2023-02-16T12:49:07.436Z,73.50
2023-02-16T12:51:40.302Z,74.70
2023-02-16T12:54:14.569Z,75.80
2023-02-16T12:56:46.797Z,75.90
2023-02-16T12:59:20.671Z,76.90
2023-02-16T13:01:53.037Z,77.30
2023-02-16T13:04:28.661Z,77.50
2023-02-16T13:07:06.483Z,78.30
2023-02-16T13:09:46.047Z,78.70
2023-02-16T13:12:25.712Z,78.90
2023-02-16T13:15:02.724Z,77.50
2023-02-16T13:17:35.132Z,77.90
2023-02-16T13:20:04.617Z,78.30
2023-02-16T13:22:47.685Z,77.60
2023-02-16T13:25:38.272Z,78.00
2023-02-16T13:28:23.600Z,77.30
2023-02-16T13:31:15.667Z,76.70
2023-02-16T13:34:06.085Z,76.90
2023-02-16T13:36:55.221Z,78.10
2023-02-16T13:39:37.582Z,77.10
2023-02-16T13:42:34.940Z,76.40
2023-02-16T13:45:05.936Z,75.10
2023-02-16T13:47:38.629Z,76.30
2023-02-16T13:50:09.539Z,76.10
2023-02-16T13:52:41.186Z,76.10
2023-02-16T13:55:24.068Z,77.60
2023-02-16T13:58:04.461Z,75.90
2023-02-16T14:00:36.543Z,76.80
2023-02-16T14:03:12.319Z,75.90
2023-02-16T14:05:42.304Z,77.00
2023-02-16T14:08:20.620Z,75.00
2023-02-16T14:11:10.098Z,77.00
2023-02-16T14:13:50.737Z,77.20
2023-02-16T14:16:33.895Z,75.80
2023-02-16T14:19:06.047Z,77.10
2023-02-16T14:21:38.785Z,76.00
2023-02-16T14:24:11.762Z,77.30
2023-02-16T14:26:54.693Z,76.70
2023-02-16T14:29:28.142Z,78.40
2023-02-16T14:32:02.013Z,76.10
2023-02-16T14:34:36.385Z,74.40
2023-02-16T14:37:30.191Z,76.50
2023-02-16T14:40:19.681Z,76.60
2023-02-16T14:43:02.665Z,76.30
2023-02-16T14:46:12.394Z,77.80
2023-02-16T14:49:19.319Z,77.40
2023-02-16T14:52:04.821Z,76.80
2023-02-16T14:55:17.618Z,78.80
2023-02-16T14:57:53.073Z,78.30
2023-02-16T15:00:29.590Z,77.40
2023-02-16T15:03:01.822Z,77.70
2023-02-16T15:05:32.924Z,77.80
2023-02-16T15:08:09.701Z,80.00
2023-02-16T15:10:40.364Z,80.60
2023-02-16T15:13:09.761Z,82.00
2023-02-16T15:15:46.177Z,81.00
2023-02-16T15:18:18.405Z,81.80
2023-02-16T15:20:49.120Z,81.80
2023-02-16T15:23:21.441Z,81.70
2023-02-16T15:25:59.278Z,81.40
2023-02-16T15:28:29.420Z,82.30
2023-02-16T15:30:59.433Z,81.30
2023-02-16T15:33:36.180Z,81.20
2023-02-16T15:36:07.967Z,81.80
2023-02-16T15:38:38.010Z,81.10
2023-02-16T15:41:08.081Z,79.60
2023-02-16T15:43:39.975Z,81.20
2023-02-16T15:46:15.859Z,80.90
2023-02-16T15:48:45.933Z,81.20
2023-02-16T15:51:18.997Z,81.70
2023-02-16T15:53:50.667Z,82.10
2023-02-16T15:56:29.433Z,81.90
2023-02-16T15:59:00.821Z,82.00
2023-02-16T16:01:33.839Z,81.60
2023-02-16T16:04:07.209Z,81.50
2023-02-16T16:06:38.081Z,82.10
2023-02-16T16:09:08.573Z,82.10
2023-02-16T16:11:38.139Z,82.20
2023-02-16T16:14:07.370Z,82.40
2023-02-16T16:16:36.075Z,82.50
2023-02-16T16:19:14.964Z,83.40
2023-02-16T16:21:54.101Z,83.90
2023-02-16T16:24:33.545Z,84.50
2023-02-16T16:27:04.733Z,84.70
2023-02-16T16:29:36.308Z,86.10
2023-02-16T16:32:06.222Z,86.30
2023-02-16T16:34:40.613Z,86.30
2023-02-16T16:37:25.103Z,86.80
2023-02-16T16:40:01.846Z,87.10
2023-02-16T16:42:31.085Z,87.10
2023-02-16T16:45:06.951Z,87.00
2023-02-16T16:47:38.696Z,87.80
2023-02-16T16:50:30.270Z,87.90
2023-02-16T16:52:58.967Z,87.90
2023-02-16T16:55:33.345Z,88.40
2023-02-16T16:58:03.295Z,88.40
2023-02-16T17:00:35.424Z,88.40
2023-02-16T17:03:04.675Z,88.70
2023-02-16T17:05:35.795Z,88.70
2023-02-16T17:08:03.901Z,88.60
2023-02-16T17:10:32.338Z,88.40
2023-02-16T17:13:02.933Z,88.20
2023-02-16T17:15:36.312Z,88.10
2023-02-16T17:18:05.199Z,89.80
2023-02-16T17:20:34.459Z,89.00
2023-02-16T17:23:04.821Z,89.30
2023-02-16T17:25:36.776Z,89.10
2023-02-16T17:28:06.245Z,90.00
2023-02-16T17:30:35.147Z,89.70
2023-02-16T17:33:03.613Z,90.10
2023-02-16T17:35:34.067Z,89.90
2023-02-16T17:38:08.248Z,90.00
2023-02-16T17:40:36.181Z,90.10
2023-02-16T17:43:07.780Z,90.10
2023-02-16T17:45:35.757Z,90.30
2023-02-16T17:48:03.732Z,90.40
2023-02-16T17:50:33.056Z,90.30
2023-02-16T17:53:02.872Z,90.30
2023-02-16T17:55:30.962Z,90.10
2023-02-16T17:57:59.101Z,90.00
2023-02-16T18:00:27.336Z,90.00
2023-02-16T18:02:55.251Z,90.00
2023-02-16T18:05:23.544Z,89.90
2023-02-16T18:07:52.297Z,90.20
2023-02-16T18:10:33.680Z,90.10
2023-02-16T18:13:01.923Z,90.20
2023-02-16T18:15:30.554Z,90.30
2023-02-16T18:17:59.072Z,90.30
2023-02-16T18:20:27.663Z,90.40
2023-02-16T18:22:55.582Z,90.30
2023-02-16T18:25:25.195Z,90.40
2023-02-16T18:27:53.796Z,90.40
2023-02-16T18:30:22.270Z,90.40
2023-02-16T18:32:50.851Z,90.40
2023-02-16T18:35:19.584Z,90.40
2023-02-16T18:37:47.916Z,90.50
2023-02-16T18:40:19.484Z,90.50
2023-02-16T18:42:48.926Z,90.80
2023-02-16T18:45:16.903Z,90.60
2023-02-16T18:47:45.334Z,90.60
2023-02-16T18:50:13.629Z,90.60
2023-02-16T18:52:43.286Z,90.70
2023-02-16T18:55:11.976Z,90.80
2023-02-16T18:57:40.095Z,90.90
2023-02-16T19:00:12.104Z,90.90
2023-02-16T19:02:40.796Z,90.90
2023-02-16T19:05:09.909Z,91.00
2023-02-16T19:07:37.891Z,91.00
2023-02-16T19:10:08.294Z,91.00
2023-02-16T19:12:36.298Z,91.00
2023-02-16T19:15:04.653Z,91.00
2023-02-16T19:17:34.209Z,91.20
2023-02-16T19:20:02.446Z,91.10
2023-02-16T19:22:30.635Z,91.10
2023-02-16T19:24:58.537Z,91.10
2023-02-16T19:27:26.489Z,91.00
2023-02-16T19:29:54.490Z,91.00
2023-02-16T19:32:22.446Z,91.00
2023-02-16T19:34:51.747Z,90.90
2023-02-16T19:37:20.107Z,91.00
2023-02-16T19:39:48.024Z,90.90
2023-02-16T19:42:16.046Z,91.10
2023-02-16T19:44:44.004Z,91.40
2023-02-16T19:47:12.019Z,91.30
2023-02-16T19:49:40.078Z,91.40
2023-02-16T19:52:09.586Z,91.40
2023-02-16T19:54:37.694Z,91.60
2023-02-16T19:57:06.301Z,91.50
2023-02-16T19:59:34.438Z,91.60
2023-02-16T20:02:02.356Z,91.60
2023-02-16T20:04:30.460Z,91.60
2023-02-16T20:06:58.431Z,91.80
2023-02-16T20:09:28.205Z,91.80
2023-02-16T20:11:56.119Z,91.80
2023-02-16T20:14:24.199Z,91.80
2023-02-16T20:16:52.156Z,91.90
2023-02-16T20:19:20.132Z,92.20
2023-02-16T20:21:48.033Z,92.20
2023-02-16T20:24:16.444Z,92.60
2023-02-16T20:26:48.992Z,92.50
2023-02-16T20:29:17.117Z,92.60
2023-02-16T20:31:49.781Z,92.70
2023-02-16T20:34:18.753Z,92.80
2023-02-16T20:36:46.675Z,92.60
2023-02-16T20:39:15.184Z,92.50
2023-02-16T20:41:43.177Z,92.50
2023-02-16T20:44:13.330Z,92.40
2023-02-16T20:46:42.365Z,92.40
2023-02-16T20:49:10.925Z,92.30
2023-02-16T20:51:38.983Z,92.20
2023-02-16T20:54:07.170Z,92.10
2023-02-16T20:56:35.352Z,92.10
2023-02-16T20:59:04.497Z,91.90
2023-02-16T21:01:37.466Z,92.00
2023-02-16T21:04:06.740Z,92.00
2023-02-16T21:06:35.264Z,91.90
2023-02-16T21:09:03.809Z,91.90
2023-02-16T21:11:31.906Z,91.60
2023-02-16T21:14:02.110Z,91.70
2023-02-16T21:16:30.481Z,91.60
2023-02-16T21:18:59.815Z,91.60
2023-02-16T21:21:27.865Z,91.60
2023-02-16T21:23:56.348Z,91.50
2023-02-16T21:26:26.207Z,91.70
2023-02-16T21:28:55.232Z,91.60
2023-02-16T21:31:25.118Z,91.60
2023-02-16T21:33:53.637Z,91.50
2023-02-16T21:36:25.100Z,91.90
2023-02-16T21:38:53.666Z,92.00
2023-02-16T21:41:25.343Z,92.70
2023-02-16T21:44:00.624Z,93.60
2023-02-16T21:46:30.394Z,93.60
2023-02-16T21:48:57.718Z,93.40
2023-02-16T21:51:29.597Z,93.10
2023-02-16T21:53:59.096Z,93.00
2023-02-16T21:56:36.038Z,93.10
2023-02-16T21:59:05.381Z,92.90
2023-02-16T22:01:35.838Z,92.70
2023-02-16T22:04:05.195Z,93.10
2023-02-16T22:06:36.260Z,93.70
2023-02-16T22:09:08.175Z,93.90
2023-02-16T22:11:36.395Z,93.50
2023-02-16T22:14:04.340Z,93.60
2023-02-16T22:16:33.438Z,94.40
2023-02-16T22:19:05.009Z,94.40
2023-02-16T22:21:38.249Z,94.00
2023-02-16T22:24:07.342Z,93.70
2023-02-16T22:26:36.488Z,93.80
2023-02-16T22:29:05.952Z,93.70
2023-02-16T22:31:34.391Z,93.70
2023-02-16T22:34:05.510Z,93.70
2023-02-16T22:36:33.500Z,93.70
2023-02-16T22:39:02.869Z,93.50
2023-02-16T22:41:31.210Z,93.50
2023-02-16T22:43:59.933Z,93.40
2023-02-16T22:46:29.182Z,93.50
2023-02-16T22:48:58.813Z,93.60
2023-02-16T22:51:29.476Z,93.50
2023-02-16T22:53:59.574Z,93.40
2023-02-16T22:56:29.705Z,93.50
2023-02-16T22:58:58.317Z,93.60
2023-02-16T23:01:28.120Z,93.70
2023-02-16T23:03:57.977Z,93.70
2023-02-16T23:06:28.531Z,93.60
2023-02-16T23:08:59.432Z,93.60
2023-02-16T23:11:29.167Z,93.40
2023-02-16T23:13:57.199Z,93.60
2023-02-16T23:16:26.544Z,93.50
2023-02-16T23:18:56.258Z,94.20
2023-02-16T23:21:26.218Z,94.10
2023-02-16T23:23:55.239Z,94.10
2023-02-16T23:26:24.824Z,94.00
2023-02-16T23:28:55.977Z,94.10
2023-02-16T23:31:24.545Z,94.70
2023-02-16T23:33:52.859Z,94.70
2023-02-16T23:36:20.793Z,94.30
2023-02-16T23:38:48.731Z,94.20
2023-02-16T23:41:17.341Z,94.00
2023-02-16T23:43:45.297Z,94.60
2023-02-16T23:46:14.659Z,94.10
2023-02-16T23:48:42.632Z,93.90
2023-02-16T23:51:12.058Z,94.20
2023-02-16T23:53:40.532Z,93.80
2023-02-16T23:56:12.404Z,94.20
2023-02-16T23:58:42.229Z,94.60
